createdAt,value
2022-09-18T00:00:34.426Z,1006.69
2022-09-18T00:01:09.778Z,1006.67
2022-09-18T00:01:45.009Z,1006.61
2022-09-18T00:02:20.219Z,1006.65
2022-09-18T00:02:55.335Z,1006.59
2022-09-18T00:03:30.385Z,1006.58
2022-09-18T00:04:05.301Z,1006.61
2022-09-18T00:04:40.400Z,1006.61
2022-09-18T00:05:16.007Z,1006.57
2022-09-18T00:05:51.612Z,1006.57
2022-09-18T00:06:27.014Z,1006.58
2022-09-18T00:07:02.209Z,1006.51
2022-09-18T00:07:37.320Z,1006.54
2022-09-18T00:08:12.721Z,1006.52
2022-09-18T00:08:47.831Z,1006.52
2022-09-18T00:09:22.922Z,1006.51
2022-09-18T00:09:57.811Z,1006.46
2022-09-18T00:10:33.292Z,1006.47
2022-09-18T00:11:08.197Z,1006.47
2022-09-18T00:11:43.517Z,1006.46
2022-09-18T00:12:19.042Z,1006.45
2022-09-18T00:12:54.155Z,1006.51
2022-09-18T00:13:29.641Z,1006.41
2022-09-18T00:14:06.669Z,1006.44
2022-09-18T00:14:41.574Z,1006.41
2022-09-18T00:15:16.962Z,1006.41
2022-09-18T00:15:52.154Z,1006.45
2022-09-18T00:16:27.451Z,1006.43
2022-09-18T00:17:05.833Z,1006.42
2022-09-18T00:17:38.054Z,1006.41
2022-09-18T00:18:13.449Z,1006.46
2022-09-18T00:18:49.025Z,1006.44
2022-09-18T00:19:24.191Z,1006.47
2022-09-18T00:19:59.537Z,1006.53
2022-09-18T00:20:34.818Z,1006.49
2022-09-18T00:21:09.831Z,1006.51
2022-09-18T00:21:44.939Z,1006.52
2022-09-18T00:22:19.951Z,1006.49
2022-09-18T00:22:55.271Z,1006.52
2022-09-18T00:23:30.320Z,1006.52
2022-09-18T00:24:05.421Z,1006.53
2022-09-18T00:24:40.835Z,1006.56
2022-09-18T00:25:16.149Z,1006.55
2022-09-18T00:25:51.755Z,1006.53
2022-09-18T00:26:26.945Z,1006.57
2022-09-18T00:27:02.161Z,1006.59
2022-09-18T00:27:37.164Z,1006.57
2022-09-18T00:28:12.675Z,1006.59
2022-09-18T00:28:48.284Z,1006.57
2022-09-18T00:29:23.587Z,1006.56
2022-09-18T00:29:58.881Z,1006.56
2022-09-18T00:30:34.263Z,1006.53
2022-09-18T00:31:09.624Z,1006.58
2022-09-18T00:31:44.826Z,1006.54
2022-09-18T00:32:19.759Z,1006.57
2022-09-18T00:32:54.753Z,1006.57
2022-09-18T00:33:30.253Z,1006.58
2022-09-18T00:34:05.459Z,1006.58
2022-09-18T00:34:40.554Z,1006.55
2022-09-18T00:35:15.859Z,1006.53
2022-09-18T00:35:51.083Z,1006.54
2022-09-18T00:36:26.256Z,1006.53
2022-09-18T00:37:01.450Z,1006.56
2022-09-18T00:37:36.848Z,1006.55
2022-09-18T00:38:12.142Z,1006.54
2022-09-18T00:38:47.166Z,1006.58
2022-09-18T00:39:22.260Z,1006.56
2022-09-18T00:39:57.533Z,1006.59
2022-09-18T00:40:32.515Z,1006.62
2022-09-18T00:41:07.589Z,1006.59
2022-09-18T00:41:42.761Z,1006.62
2022-09-18T00:42:18.169Z,1006.59
2022-09-18T00:42:53.366Z,1006.59
2022-09-18T00:43:28.563Z,1006.61
2022-09-18T00:44:03.659Z,1006.60
2022-09-18T00:44:38.859Z,1006.60
2022-09-18T00:45:13.968Z,1006.62
2022-09-18T00:45:49.356Z,1006.59
2022-09-18T00:46:24.426Z,1006.63
2022-09-18T00:46:59.531Z,1006.59
2022-09-18T00:47:34.680Z,1006.59
2022-09-18T00:48:09.989Z,1006.55
2022-09-18T00:48:45.295Z,1006.60
2022-09-18T00:49:20.627Z,1006.63
2022-09-18T00:49:55.732Z,1006.62
2022-09-18T00:50:30.730Z,1006.63
2022-09-18T00:51:06.138Z,1006.60
2022-09-18T00:51:41.254Z,1006.61
2022-09-18T00:52:16.348Z,1006.56
2022-09-18T00:52:51.454Z,1006.62
2022-09-18T00:53:26.548Z,1006.59
2022-09-18T00:54:01.908Z,1006.58
2022-09-18T00:54:37.172Z,1006.62
2022-09-18T00:55:12.174Z,1006.57
2022-09-18T00:55:47.275Z,1006.59
2022-09-18T00:56:22.280Z,1006.61
2022-09-18T00:56:57.599Z,1006.63
2022-09-18T00:57:32.933Z,1006.62
2022-09-18T00:58:08.335Z,1006.58
2022-09-18T00:58:43.543Z,1006.60
2022-09-18T00:59:18.353Z,1006.60
2022-09-18T00:59:53.870Z,1006.57
2022-09-18T01:00:29.265Z,1006.58
2022-09-18T01:01:04.262Z,1006.66
2022-09-18T01:01:46.110Z,1006.55
2022-09-18T01:02:21.335Z,1006.56
2022-09-18T01:02:56.447Z,1006.61
2022-09-18T01:03:31.634Z,1006.59
2022-09-18T01:04:06.853Z,1006.62
2022-09-18T01:04:42.253Z,1006.60
2022-09-18T01:05:17.460Z,1006.62
2022-09-18T01:05:52.897Z,1006.61
2022-09-18T01:06:28.089Z,1006.58
2022-09-18T01:07:03.574Z,1006.62
2022-09-18T01:07:39.059Z,1006.60
2022-09-18T01:08:14.457Z,1006.60
2022-09-18T01:08:49.765Z,1006.57
2022-09-18T01:09:28.692Z,1006.59
2022-09-18T01:10:00.170Z,1006.59
2022-09-18T01:10:35.535Z,1006.53
2022-09-18T01:11:10.954Z,1006.59
2022-09-18T01:11:46.228Z,1006.53
2022-09-18T01:12:21.616Z,1006.54
2022-09-18T01:12:56.803Z,1006.53
2022-09-18T01:13:32.335Z,1006.54
2022-09-18T01:14:07.635Z,1006.55
2022-09-18T01:14:42.818Z,1006.53
2022-09-18T01:15:18.372Z,1006.50
2022-09-18T01:15:53.648Z,1006.48
2022-09-18T01:16:29.031Z,1006.49
2022-09-18T01:17:04.193Z,1006.44
2022-09-18T01:17:39.486Z,1006.47
2022-09-18T01:18:14.705Z,1006.48
2022-09-18T01:18:49.817Z,1006.48
2022-09-18T01:19:25.308Z,1006.50
2022-09-18T01:20:00.418Z,1006.47
2022-09-18T01:20:35.505Z,1006.48
2022-09-18T01:21:10.730Z,1006.46
2022-09-18T01:21:45.933Z,1006.44
2022-09-18T01:22:21.044Z,1006.45
2022-09-18T01:22:56.348Z,1006.47
2022-09-18T01:23:31.540Z,1006.45
2022-09-18T01:24:06.729Z,1006.47
2022-09-18T01:24:42.143Z,1006.43
2022-09-18T01:25:17.380Z,1006.46
2022-09-18T01:25:52.899Z,1006.45
2022-09-18T01:26:28.294Z,1006.47
2022-09-18T01:27:03.557Z,1006.53
2022-09-18T01:27:38.635Z,1006.52
2022-09-18T01:28:13.951Z,1006.53
2022-09-18T01:28:49.222Z,1006.50
2022-09-18T01:29:24.319Z,1006.50
2022-09-18T01:29:59.651Z,1006.53
2022-09-18T01:30:34.929Z,1006.51
2022-09-18T01:31:10.197Z,1006.56
2022-09-18T01:31:45.270Z,1006.54
2022-09-18T01:32:20.547Z,1006.51
2022-09-18T01:32:55.866Z,1006.52
2022-09-18T01:33:31.169Z,1006.52
2022-09-18T01:34:06.494Z,1006.48
2022-09-18T01:34:41.608Z,1006.52
2022-09-18T01:35:39.521Z,1006.52
2022-09-18T01:35:52.075Z,1006.52
2022-09-18T01:36:27.193Z,1006.54
2022-09-18T01:37:02.411Z,1006.52
2022-09-18T01:37:37.514Z,1006.52
2022-09-18T01:38:12.839Z,1006.57
2022-09-18T01:38:48.441Z,1006.55
2022-09-18T01:39:23.586Z,1006.59
2022-09-18T01:39:58.858Z,1006.57
2022-09-18T01:40:34.001Z,1006.56
2022-09-18T01:41:09.149Z,1006.53
2022-09-18T01:41:44.139Z,1006.53
2022-09-18T01:42:19.555Z,1006.54
2022-09-18T01:42:54.767Z,1006.55
2022-09-18T01:43:30.003Z,1006.50
2022-09-18T01:44:05.191Z,1006.57
2022-09-18T01:44:40.413Z,1006.55
2022-09-18T01:45:15.858Z,1006.60
2022-09-18T01:45:51.077Z,1006.55
2022-09-18T01:46:26.169Z,1006.53
2022-09-18T01:47:01.490Z,1006.55
2022-09-18T01:47:36.517Z,1006.50
2022-09-18T01:48:11.961Z,1006.53
2022-09-18T01:48:48.281Z,1006.47
2022-09-18T01:49:23.609Z,1006.54
2022-09-18T01:49:58.759Z,1006.55
2022-09-18T01:50:34.071Z,1006.52
2022-09-18T01:51:09.296Z,1006.51
2022-09-18T01:51:44.695Z,1006.52
2022-09-18T01:52:20.000Z,1006.52
2022-09-18T01:52:55.204Z,1006.49
2022-09-18T01:53:30.496Z,1006.49
2022-09-18T01:54:06.225Z,1006.50
2022-09-18T01:54:41.642Z,1006.44
2022-09-18T01:55:16.669Z,1006.48
2022-09-18T01:55:51.803Z,1006.51
2022-09-18T01:56:26.994Z,1006.51
2022-09-18T01:57:02.303Z,1006.50
2022-09-18T01:57:37.517Z,1006.54
2022-09-18T01:58:12.558Z,1006.51
2022-09-18T01:58:47.749Z,1006.52
2022-09-18T01:59:23.197Z,1006.55
2022-09-18T01:59:58.470Z,1006.52
2022-09-18T02:00:34.174Z,1006.51
2022-09-18T02:01:09.770Z,1006.54
2022-09-18T02:01:44.959Z,1006.52
2022-09-18T02:02:19.972Z,1006.58
2022-09-18T02:02:54.774Z,1006.52
2022-09-18T02:03:30.121Z,1006.52
2022-09-18T02:04:05.243Z,1006.53
2022-09-18T02:04:40.428Z,1006.51
2022-09-18T02:05:15.751Z,1006.48
2022-09-18T02:05:50.871Z,1006.48
2022-09-18T02:06:26.363Z,1006.48
2022-09-18T02:07:01.704Z,1006.49
2022-09-18T02:07:36.896Z,1006.43
2022-09-18T02:08:12.209Z,1006.45
2022-09-18T02:08:47.419Z,1006.43
2022-09-18T02:09:22.551Z,1006.46
2022-09-18T02:09:57.868Z,1006.48
2022-09-18T02:10:33.077Z,1006.46
2022-09-18T02:11:08.376Z,1006.41
2022-09-18T02:11:43.477Z,1006.46
2022-09-18T02:12:18.713Z,1006.42
2022-09-18T02:12:53.899Z,1006.40
2022-09-18T02:13:28.914Z,1006.44
2022-09-18T02:14:04.158Z,1006.44
2022-09-18T02:14:39.360Z,1006.45
2022-09-18T02:15:14.664Z,1006.37
2022-09-18T02:15:49.815Z,1006.43
2022-09-18T02:16:24.874Z,1006.40
2022-09-18T02:17:00.153Z,1006.44
2022-09-18T02:17:35.143Z,1006.35
2022-09-18T02:18:10.360Z,1006.39
2022-09-18T02:18:45.664Z,1006.37
2022-09-18T02:19:20.876Z,1006.43
2022-09-18T02:19:56.304Z,1006.38
2022-09-18T02:20:31.698Z,1006.37
2022-09-18T02:21:07.037Z,1006.37
2022-09-18T02:21:42.641Z,1006.40
2022-09-18T02:22:18.065Z,1006.33
2022-09-18T02:22:53.487Z,1006.35
2022-09-18T02:23:28.697Z,1006.37
2022-09-18T02:24:03.725Z,1006.38
2022-09-18T02:24:38.930Z,1006.36
2022-09-18T02:25:14.262Z,1006.37
2022-09-18T02:25:49.463Z,1006.39
2022-09-18T02:26:24.680Z,1006.37
2022-09-18T02:26:59.897Z,1006.39
2022-09-18T02:27:35.215Z,1006.40
2022-09-18T02:28:10.214Z,1006.35
2022-09-18T02:28:45.522Z,1006.35
2022-09-18T02:29:20.954Z,1006.35
2022-09-18T02:29:56.166Z,1006.36
2022-09-18T02:30:31.384Z,1006.35
2022-09-18T02:31:06.557Z,1006.35
2022-09-18T02:31:41.881Z,1006.32
2022-09-18T02:32:17.022Z,1006.30
2022-09-18T02:32:52.132Z,1006.32
2022-09-18T02:33:27.134Z,1006.29
2022-09-18T02:34:02.579Z,1006.30
2022-09-18T02:34:37.774Z,1006.31
2022-09-18T02:35:13.200Z,1006.30
2022-09-18T02:35:48.400Z,1006.30
2022-09-18T02:36:23.810Z,1006.29
2022-09-18T02:36:59.012Z,1006.31
2022-09-18T02:37:34.137Z,1006.26
2022-09-18T02:38:09.665Z,1006.29
2022-09-18T02:38:44.877Z,1006.26
2022-09-18T02:39:20.483Z,1006.23
2022-09-18T02:39:56.027Z,1006.25
2022-09-18T02:40:31.235Z,1006.20
2022-09-18T02:41:06.217Z,1006.23
2022-09-18T02:41:41.536Z,1006.25
2022-09-18T02:42:16.729Z,1006.24
2022-09-18T02:42:52.013Z,1006.25
2022-09-18T02:43:27.337Z,1006.23
2022-09-18T02:44:02.659Z,1006.26
2022-09-18T02:44:37.772Z,1006.28
2022-09-18T02:45:13.182Z,1006.27
2022-09-18T02:45:48.400Z,1006.26
2022-09-18T02:46:23.748Z,1006.26
2022-09-18T02:46:58.915Z,1006.26
2022-09-18T02:47:34.330Z,1006.24
2022-09-18T02:48:09.659Z,1006.21
2022-09-18T02:48:44.675Z,1006.25
2022-09-18T02:49:19.801Z,1006.20
2022-09-18T02:49:55.198Z,1006.22
2022-09-18T02:50:30.410Z,1006.27
2022-09-18T02:51:05.963Z,1006.25
2022-09-18T02:51:41.375Z,1006.20
2022-09-18T02:52:16.885Z,1006.23
2022-09-18T02:52:52.092Z,1006.22
2022-09-18T02:53:27.422Z,1006.21
2022-09-18T02:54:02.544Z,1006.19
2022-09-18T02:54:37.948Z,1006.11
2022-09-18T02:55:13.458Z,1006.13
2022-09-18T02:55:48.578Z,1006.15
2022-09-18T02:56:25.136Z,1006.16
2022-09-18T02:57:00.334Z,1006.22
2022-09-18T02:57:35.570Z,1006.19
2022-09-18T02:58:10.902Z,1006.16
2022-09-18T02:58:46.196Z,1006.15
2022-09-18T02:59:21.615Z,1006.19
2022-09-18T02:59:57.033Z,1006.21
2022-09-18T03:00:32.358Z,1006.19
2022-09-18T03:01:07.747Z,1006.15
2022-09-18T03:01:43.181Z,1006.24
2022-09-18T03:02:18.751Z,1006.21
2022-09-18T03:02:53.908Z,1006.21
2022-09-18T03:03:29.170Z,1006.21
2022-09-18T03:04:04.678Z,1006.15
2022-09-18T03:04:40.010Z,1006.13
2022-09-18T03:05:15.417Z,1006.19
2022-09-18T03:05:50.666Z,1006.17
2022-09-18T03:06:25.868Z,1006.21
2022-09-18T03:07:01.084Z,1006.16
2022-09-18T03:07:36.483Z,1006.17
2022-09-18T03:08:11.398Z,1006.16
2022-09-18T03:08:46.532Z,1006.18
2022-09-18T03:09:21.939Z,1006.14
2022-09-18T03:09:57.137Z,1006.12
2022-09-18T03:10:32.550Z,1006.15
2022-09-18T03:11:07.783Z,1006.18
2022-09-18T03:11:42.765Z,1006.16
2022-09-18T03:12:18.092Z,1006.14
2022-09-18T03:12:53.187Z,1006.16
2022-09-18T03:13:28.306Z,1006.12
2022-09-18T03:14:03.629Z,1006.14
2022-09-18T03:14:38.954Z,1006.12
2022-09-18T03:15:14.264Z,1006.14
2022-09-18T03:15:49.884Z,1006.14
2022-09-18T03:16:25.232Z,1006.12
2022-09-18T03:17:00.558Z,1006.11
2022-09-18T03:17:35.666Z,1006.11
2022-09-18T03:18:10.915Z,1006.10
2022-09-18T03:18:46.339Z,1006.10
2022-09-18T03:19:21.670Z,1006.17
2022-09-18T03:19:56.754Z,1006.13
2022-09-18T03:20:32.199Z,1006.15
2022-09-18T03:21:07.439Z,1006.14
2022-09-18T03:21:42.830Z,1006.12
2022-09-18T03:22:18.139Z,1006.17
2022-09-18T03:22:53.470Z,1006.09
2022-09-18T03:23:28.766Z,1006.08
2022-09-18T03:24:03.898Z,1006.12
2022-09-18T03:24:38.898Z,1006.16
2022-09-18T03:25:14.042Z,1006.15
2022-09-18T03:25:49.465Z,1006.16
2022-09-18T03:26:24.584Z,1006.14
2022-09-18T03:26:59.688Z,1006.15
2022-09-18T03:27:35.106Z,1006.15
2022-09-18T03:28:10.509Z,1006.18
2022-09-18T03:28:45.630Z,1006.13
2022-09-18T03:29:20.841Z,1006.17
2022-09-18T03:29:55.944Z,1006.15
2022-09-18T03:30:31.356Z,1006.16
2022-09-18T03:31:06.928Z,1006.21
2022-09-18T03:31:42.197Z,1006.18
2022-09-18T03:32:17.247Z,1006.20
2022-09-18T03:32:52.363Z,1006.15
2022-09-18T03:33:27.775Z,1006.17
2022-09-18T03:34:03.072Z,1006.19
2022-09-18T03:34:38.531Z,1006.15
2022-09-18T03:35:13.734Z,1006.16
2022-09-18T03:35:48.836Z,1006.15
2022-09-18T03:36:24.051Z,1006.13
2022-09-18T03:36:59.671Z,1006.12
2022-09-18T03:37:34.779Z,1006.20
2022-09-18T03:38:09.983Z,1006.17
2022-09-18T03:38:45.204Z,1006.19
2022-09-18T03:39:20.333Z,1006.24
2022-09-18T03:39:55.588Z,1006.14
2022-09-18T03:40:30.889Z,1006.17
2022-09-18T03:41:05.998Z,1006.15
2022-09-18T03:41:41.236Z,1006.17
2022-09-18T03:42:16.475Z,1006.16
2022-09-18T03:42:51.670Z,1006.19
2022-09-18T03:43:27.078Z,1006.14
2022-09-18T03:44:02.708Z,1006.17
2022-09-18T03:44:38.122Z,1006.16
2022-09-18T03:45:13.339Z,1006.24
2022-09-18T03:45:48.455Z,1006.18
2022-09-18T03:46:23.770Z,1006.22
2022-09-18T03:46:59.048Z,1006.18
2022-09-18T03:47:36.448Z,1006.19
2022-09-18T03:48:09.314Z,1006.18
2022-09-18T03:48:44.631Z,1006.18
2022-09-18T03:49:19.849Z,1006.16
2022-09-18T03:49:54.967Z,1006.18
2022-09-18T03:50:30.482Z,1006.14
2022-09-18T03:51:05.789Z,1006.12
2022-09-18T03:51:41.013Z,1006.08
2022-09-18T03:52:16.320Z,1006.12
2022-09-18T03:52:51.776Z,1006.12
2022-09-18T03:53:26.758Z,1006.09
2022-09-18T03:54:02.079Z,1006.09
2022-09-18T03:54:37.504Z,1006.12
2022-09-18T03:55:12.625Z,1006.12
2022-09-18T03:55:48.151Z,1006.09
2022-09-18T03:56:23.462Z,1006.09
2022-09-18T03:56:58.677Z,1006.11
2022-09-18T03:57:34.005Z,1006.07
2022-09-18T03:58:09.320Z,1006.09
2022-09-18T03:58:44.846Z,1006.04
2022-09-18T03:59:20.044Z,1006.07
2022-09-18T03:59:55.284Z,1006.08
2022-09-18T04:00:30.276Z,1006.05
2022-09-18T04:01:05.318Z,1006.07
2022-09-18T04:01:40.659Z,1006.11
2022-09-18T04:02:15.906Z,1006.06
2022-09-18T04:02:51.376Z,1006.10
2022-09-18T04:03:26.478Z,1006.10
2022-09-18T04:04:01.793Z,1006.12
2022-09-18T04:04:37.006Z,1006.15
2022-09-18T04:05:12.237Z,1006.10
2022-09-18T04:05:47.454Z,1006.16
2022-09-18T04:06:22.774Z,1006.08
2022-09-18T04:06:57.764Z,1006.09
2022-09-18T04:07:32.985Z,1006.08
2022-09-18T04:08:08.309Z,1006.02
2022-09-18T04:08:43.623Z,1006.07
2022-09-18T04:09:19.150Z,1006.06
2022-09-18T04:09:54.355Z,1006.05
2022-09-18T04:10:29.566Z,1006.04
2022-09-18T04:11:04.801Z,1006.11
2022-09-18T04:11:40.134Z,1006.09
2022-09-18T04:12:15.447Z,1006.07
2022-09-18T04:12:50.766Z,1006.03
2022-09-18T04:13:25.942Z,1006.06
2022-09-18T04:14:01.668Z,1006.06
2022-09-18T04:14:36.979Z,1006.11
2022-09-18T04:15:12.297Z,1006.10
2022-09-18T04:15:47.643Z,1006.11
2022-09-18T04:16:22.951Z,1006.09
2022-09-18T04:16:57.943Z,1006.07
2022-09-18T04:17:40.311Z,1006.06
2022-09-18T04:18:15.645Z,1006.10
2022-09-18T04:18:50.977Z,1006.04
2022-09-18T04:19:25.979Z,1006.05
2022-09-18T04:20:01.226Z,1006.05
2022-09-18T04:20:36.640Z,1006.10
2022-09-18T04:21:12.195Z,1006.07
2022-09-18T04:21:47.412Z,1006.09
2022-09-18T04:22:22.832Z,1006.05
2022-09-18T04:22:58.060Z,1006.13
2022-09-18T04:23:33.304Z,1006.10
2022-09-18T04:24:08.514Z,1006.12
2022-09-18T04:24:43.595Z,1006.15
2022-09-18T04:25:18.954Z,1006.17
2022-09-18T04:25:54.361Z,1006.11
2022-09-18T04:26:29.886Z,1006.06
2022-09-18T04:27:05.024Z,1006.03
2022-09-18T04:27:40.333Z,1006.08
2022-09-18T04:28:15.624Z,1006.09
2022-09-18T04:28:51.265Z,1006.03
2022-09-18T04:29:26.676Z,1006.03
2022-09-18T04:30:01.763Z,1006.06
2022-09-18T04:30:37.867Z,1006.00
2022-09-18T04:31:13.292Z,1005.97
2022-09-18T04:31:48.534Z,1005.98
2022-09-18T04:32:23.760Z,1005.97
2022-09-18T04:32:59.674Z,1006.02
2022-09-18T04:33:35.033Z,1005.92
2022-09-18T04:34:10.397Z,1005.99
2022-09-18T04:34:45.819Z,1005.98
2022-09-18T04:35:21.028Z,1005.98
2022-09-18T04:35:56.269Z,1005.94
2022-09-18T04:36:31.694Z,1005.97
2022-09-18T04:37:10.096Z,1005.94
2022-09-18T04:37:42.399Z,1005.98
2022-09-18T04:38:18.465Z,1006.00
2022-09-18T04:38:54.280Z,1005.92
2022-09-18T04:39:29.369Z,1005.94
2022-09-18T04:40:04.792Z,1005.98
2022-09-18T04:40:40.740Z,1005.91
2022-09-18T04:41:15.890Z,1005.89
2022-09-18T04:41:51.161Z,1005.94
2022-09-18T04:42:26.691Z,1005.90
2022-09-18T04:43:01.998Z,1005.95
2022-09-18T04:43:37.246Z,1005.91
2022-09-18T04:44:12.862Z,1005.92
2022-09-18T04:44:49.287Z,1005.89
2022-09-18T04:45:24.762Z,1005.94
2022-09-18T04:46:00.311Z,1005.92
2022-09-18T04:46:35.705Z,1005.89
2022-09-18T04:47:10.753Z,1005.91
2022-09-18T04:47:46.127Z,1005.95
2022-09-18T04:48:21.468Z,1005.95
2022-09-18T04:48:57.027Z,1005.92
2022-09-18T04:49:32.259Z,1005.93
2022-09-18T04:50:07.827Z,1005.94
2022-09-18T04:50:42.986Z,1005.91
2022-09-18T04:51:18.225Z,1005.92
2022-09-18T04:51:53.473Z,1005.96
2022-09-18T04:52:28.589Z,1005.92
2022-09-18T04:53:04.202Z,1005.96
2022-09-18T04:53:39.802Z,1005.93
2022-09-18T04:54:15.115Z,1005.97
2022-09-18T04:54:50.331Z,1005.93
2022-09-18T04:55:25.763Z,1005.94
2022-09-18T04:56:01.082Z,1005.96
2022-09-18T04:56:35.936Z,1005.97
2022-09-18T04:57:11.362Z,1005.90
2022-09-18T04:57:50.042Z,1005.91
2022-09-18T04:58:23.799Z,1005.92
2022-09-18T04:58:59.778Z,1005.91
2022-09-18T04:59:36.133Z,1005.91
2022-09-18T05:00:11.490Z,1005.88
2022-09-18T05:00:47.477Z,1005.87
2022-09-18T05:01:22.968Z,1005.90
2022-09-18T05:01:58.130Z,1005.92
2022-09-18T05:02:33.675Z,1005.89
2022-09-18T05:03:09.397Z,1005.92
2022-09-18T05:03:44.518Z,1005.91
2022-09-18T05:04:19.732Z,1005.91
2022-09-18T05:04:55.555Z,1005.90
2022-09-18T05:05:30.996Z,1005.92
2022-09-18T05:06:05.953Z,1005.88
2022-09-18T05:06:41.268Z,1005.89
2022-09-18T05:07:16.484Z,1005.84
2022-09-18T05:07:51.636Z,1005.82
2022-09-18T05:08:26.928Z,1005.84
2022-09-18T05:09:02.401Z,1005.87
2022-09-18T05:09:37.275Z,1005.85
2022-09-18T05:10:12.887Z,1005.82
2022-09-18T05:10:48.254Z,1005.83
2022-09-18T05:11:24.801Z,1005.85
2022-09-18T05:12:00.683Z,1005.92
2022-09-18T05:12:35.934Z,1005.88
2022-09-18T05:13:11.156Z,1005.92
2022-09-18T05:13:46.312Z,1005.91
2022-09-18T05:14:21.718Z,1005.88
2022-09-18T05:14:57.294Z,1005.95
2022-09-18T05:15:32.533Z,1005.91
2022-09-18T05:16:08.097Z,1005.95
2022-09-18T05:16:42.941Z,1005.93
2022-09-18T05:17:18.288Z,1005.93
2022-09-18T05:17:53.826Z,1005.93
2022-09-18T05:18:29.293Z,1005.93
2022-09-18T05:19:04.598Z,1005.95
2022-09-18T05:19:41.022Z,1005.95
2022-09-18T05:20:16.338Z,1005.97
2022-09-18T05:20:51.668Z,1005.95
2022-09-18T05:21:27.021Z,1005.96
2022-09-18T05:22:02.787Z,1005.96
2022-09-18T05:22:38.148Z,1006.00
2022-09-18T05:23:13.283Z,1006.02
2022-09-18T05:23:48.337Z,1006.02
2022-09-18T05:24:23.668Z,1006.02
2022-09-18T05:24:59.102Z,1006.03
2022-09-18T05:25:34.417Z,1006.00
2022-09-18T05:26:09.482Z,1006.01
2022-09-18T05:26:44.575Z,1006.00
2022-09-18T05:27:23.482Z,1006.01
2022-09-18T05:27:55.337Z,1005.94
2022-09-18T05:28:30.797Z,1006.03
2022-09-18T05:29:06.122Z,1006.00
2022-09-18T05:29:41.445Z,1006.05
2022-09-18T05:30:17.967Z,1006.04
2022-09-18T05:30:53.274Z,1006.05
2022-09-18T05:31:28.773Z,1006.01
2022-09-18T05:32:04.005Z,1006.06
2022-09-18T05:32:39.165Z,1006.04
2022-09-18T05:33:14.412Z,1006.07
2022-09-18T05:33:49.509Z,1006.05
2022-09-18T05:34:24.560Z,1006.08
2022-09-18T05:34:59.880Z,1006.05
2022-09-18T05:35:35.387Z,1006.09
2022-09-18T05:36:10.668Z,1006.06
2022-09-18T05:36:45.818Z,1006.09
2022-09-18T05:37:21.031Z,1006.10
2022-09-18T05:37:56.810Z,1006.11
2022-09-18T05:38:32.337Z,1006.13
2022-09-18T05:39:07.347Z,1006.14
2022-09-18T05:39:42.721Z,1006.15
2022-09-18T05:40:18.000Z,1006.13
2022-09-18T05:40:53.581Z,1006.14
2022-09-18T05:41:28.912Z,1006.13
2022-09-18T05:42:04.254Z,1006.11
2022-09-18T05:42:39.663Z,1006.12
2022-09-18T05:43:14.829Z,1006.06
2022-09-18T05:43:50.083Z,1006.13
2022-09-18T05:44:25.348Z,1006.10
2022-09-18T05:45:02.040Z,1006.13
2022-09-18T05:45:35.826Z,1006.11
2022-09-18T05:46:11.414Z,1006.12
2022-09-18T05:46:46.592Z,1006.11
2022-09-18T05:47:21.688Z,1006.07
2022-09-18T05:47:57.009Z,1006.06
2022-09-18T05:48:32.432Z,1006.10
2022-09-18T05:49:07.849Z,1006.09
2022-09-18T05:49:43.098Z,1006.08
2022-09-18T05:50:18.323Z,1006.07
2022-09-18T05:50:53.665Z,1006.13
2022-09-18T05:51:29.294Z,1006.05
2022-09-18T05:52:04.806Z,1006.07
2022-09-18T05:52:39.742Z,1006.10
2022-09-18T05:53:15.209Z,1006.06
2022-09-18T05:53:50.696Z,1006.09
2022-09-18T05:54:26.042Z,1006.08
2022-09-18T05:55:01.390Z,1006.03
2022-09-18T05:55:36.520Z,1006.08
2022-09-18T05:56:12.127Z,1006.08
2022-09-18T05:56:47.442Z,1006.07
2022-09-18T05:57:22.865Z,1006.04
2022-09-18T05:57:58.119Z,1006.06
2022-09-18T05:58:33.342Z,1006.08
2022-09-18T05:59:08.985Z,1006.11
2022-09-18T05:59:44.342Z,1006.08
2022-09-18T06:00:19.674Z,1006.11
2022-09-18T06:00:54.727Z,1006.11
2022-09-18T06:01:30.326Z,1006.06
2022-09-18T06:02:05.517Z,1006.09
2022-09-18T06:02:41.149Z,1006.13
2022-09-18T06:03:16.411Z,1006.12
2022-09-18T06:03:51.837Z,1006.10
2022-09-18T06:04:27.104Z,1006.09
2022-09-18T06:05:02.295Z,1006.13
2022-09-18T06:05:37.444Z,1006.13
2022-09-18T06:06:12.694Z,1006.12
2022-09-18T06:06:47.905Z,1006.11
2022-09-18T06:07:23.059Z,1006.08
2022-09-18T06:07:59.882Z,1006.04
2022-09-18T06:08:33.793Z,1006.05
2022-09-18T06:09:09.429Z,1006.09
2022-09-18T06:09:44.896Z,1006.08
2022-09-18T06:10:20.026Z,1006.09
2022-09-18T06:10:55.270Z,1006.10
2022-09-18T06:11:30.496Z,1006.09
2022-09-18T06:12:05.621Z,1006.11
2022-09-18T06:12:40.730Z,1006.14
2022-09-18T06:13:15.886Z,1006.07
2022-09-18T06:13:51.365Z,1006.08
2022-09-18T06:14:26.618Z,1006.13
2022-09-18T06:15:01.988Z,1006.10
2022-09-18T06:15:37.226Z,1006.11
2022-09-18T06:16:12.616Z,1006.13
2022-09-18T06:16:47.905Z,1006.12
2022-09-18T06:17:23.065Z,1006.06
2022-09-18T06:17:58.485Z,1006.16
2022-09-18T06:18:33.592Z,1006.18
2022-09-18T06:19:09.229Z,1006.13
2022-09-18T06:19:44.442Z,1006.19
2022-09-18T06:20:20.074Z,1006.17
2022-09-18T06:20:55.748Z,1006.15
2022-09-18T06:21:31.198Z,1006.16
2022-09-18T06:22:06.432Z,1006.13
2022-09-18T06:22:41.529Z,1006.13
2022-09-18T06:23:16.759Z,1006.11
2022-09-18T06:23:51.909Z,1006.21
2022-09-18T06:24:27.050Z,1006.14
2022-09-18T06:25:02.401Z,1006.12
2022-09-18T06:25:37.831Z,1006.18
2022-09-18T06:26:15.074Z,1006.16
2022-09-18T06:26:48.527Z,1006.16
2022-09-18T06:27:23.768Z,1006.15
2022-09-18T06:27:59.235Z,1006.15
2022-09-18T06:28:34.579Z,1006.13
2022-09-18T06:29:09.917Z,1006.13
2022-09-18T06:29:45.261Z,1006.09
2022-09-18T06:30:20.590Z,1006.11
2022-09-18T06:30:56.173Z,1006.10
2022-09-18T06:31:31.750Z,1006.10
2022-09-18T06:32:07.029Z,1006.13
2022-09-18T06:32:42.339Z,1006.12
2022-09-18T06:33:17.659Z,1006.15
2022-09-18T06:33:52.766Z,1006.13
2022-09-18T06:34:28.071Z,1006.10
2022-09-18T06:35:03.289Z,1006.08
2022-09-18T06:35:38.446Z,1006.12
2022-09-18T06:36:13.640Z,1006.14
2022-09-18T06:36:48.841Z,1006.10
2022-09-18T06:37:24.277Z,1006.09
2022-09-18T06:37:59.404Z,1006.09
2022-09-18T06:38:34.756Z,1006.12
2022-09-18T06:39:09.964Z,1006.10
2022-09-18T06:39:46.165Z,1006.14
2022-09-18T06:40:21.705Z,1006.10
2022-09-18T06:40:56.824Z,1006.09
2022-09-18T06:41:31.722Z,1006.12
2022-09-18T06:42:06.896Z,1006.07
2022-09-18T06:42:45.936Z,1006.09
2022-09-18T06:43:17.345Z,1006.10
2022-09-18T06:43:52.704Z,1006.08
2022-09-18T06:44:27.830Z,1006.07
2022-09-18T06:45:03.218Z,1006.08
2022-09-18T06:45:38.779Z,1006.13
2022-09-18T06:46:13.981Z,1006.12
2022-09-18T06:46:49.426Z,1006.11
2022-09-18T06:47:24.655Z,1006.14
2022-09-18T06:48:00.094Z,1006.14
2022-09-18T06:48:35.363Z,1006.19
2022-09-18T06:49:10.777Z,1006.16
2022-09-18T06:49:46.127Z,1006.13
2022-09-18T06:50:21.424Z,1006.12
2022-09-18T06:50:56.691Z,1006.21
2022-09-18T06:51:32.106Z,1006.14
2022-09-18T06:52:07.328Z,1006.12
2022-09-18T06:52:42.766Z,1006.18
2022-09-18T06:53:18.216Z,1006.16
2022-09-18T06:53:53.254Z,1006.17
2022-09-18T06:54:28.655Z,1006.17
2022-09-18T06:55:04.107Z,1006.17
2022-09-18T06:55:39.504Z,1006.16
2022-09-18T06:56:14.817Z,1006.14
2022-09-18T06:56:50.142Z,1006.18
2022-09-18T06:57:25.293Z,1006.10
2022-09-18T06:58:00.290Z,1006.12
2022-09-18T06:58:35.579Z,1006.10
2022-09-18T06:59:10.883Z,1006.13
2022-09-18T06:59:46.216Z,1006.11
2022-09-18T07:00:21.423Z,1006.13
2022-09-18T07:00:57.194Z,1006.11
2022-09-18T07:01:32.920Z,1006.10
2022-09-18T07:02:08.056Z,1006.11
2022-09-18T07:02:43.516Z,1006.06
2022-09-18T07:03:18.734Z,1006.08
2022-09-18T07:03:54.172Z,1006.09
2022-09-18T07:04:29.597Z,1006.06
2022-09-18T07:05:05.094Z,1006.06
2022-09-18T07:05:40.517Z,1006.06
2022-09-18T07:06:16.027Z,1006.04
2022-09-18T07:06:51.525Z,1006.07
2022-09-18T07:07:26.954Z,1006.05